createdAt,value
2018-06-28T00:02:26.681Z,99.90
2018-06-28T00:04:55.538Z,99.90
2018-06-28T00:09:52.118Z,99.90
2018-06-28T00:12:20.426Z,99.90
2018-06-28T00:14:49.172Z,99.90
2018-06-28T00:19:45.950Z,99.90
2018-06-28T00:22:14.063Z,99.90
2018-06-28T00:24:42.882Z,99.90
2018-06-28T00:29:38.870Z,99.90
2018-06-28T00:32:07.038Z,99.90
2018-06-28T00:34:35.381Z,99.90
2018-06-28T00:37:03.989Z,99.90
2018-06-28T00:39:32.162Z,99.90
2018-06-28T00:42:00.263Z,99.90
2018-06-28T00:44:29.240Z,99.90
2018-06-28T00:46:58.477Z,99.90
2018-06-28T00:49:27.003Z,99.90
2018-06-28T00:51:55.449Z,99.90
2018-06-28T00:54:24.535Z,99.90
2018-06-28T00:56:53.095Z,99.90
2018-06-28T00:59:21.252Z,99.90
2018-06-28T01:01:49.609Z,99.90
2018-06-28T01:04:17.846Z,99.90
2018-06-28T01:06:46.831Z,99.90
2018-06-28T01:09:14.958Z,99.90
2018-06-28T01:11:43.430Z,99.90
2018-06-28T01:14:11.855Z,99.90
2018-06-28T01:16:40.005Z,99.90
2018-06-28T01:19:09.649Z,99.90
2018-06-28T01:21:38.190Z,99.90
2018-06-28T01:24:06.286Z,99.90
2018-06-28T01:26:35.275Z,99.90
2018-06-28T01:29:04.018Z,99.90
2018-06-28T01:36:29.234Z,99.90
2018-06-28T01:38:57.584Z,99.90
2018-06-28T01:41:31.870Z,99.90
2018-06-28T01:43:59.936Z,99.90
2018-06-28T01:53:53.059Z,99.90
2018-06-28T01:56:21.430Z,99.90
2018-06-28T01:58:49.666Z,99.90
2018-06-28T02:03:46.079Z,99.90
2018-06-28T02:06:14.994Z,99.90
2018-06-28T02:08:44.017Z,99.90
2018-06-28T02:11:12.086Z,99.90
2018-06-28T02:13:40.165Z,99.90
2018-06-28T02:18:37.158Z,99.90
2018-06-28T02:21:05.401Z,99.90
2018-06-28T02:23:34.066Z,99.90
2018-06-28T02:26:02.562Z,99.90
2018-06-28T02:28:31.106Z,99.90
2018-06-28T02:31:00.051Z,99.90
2018-06-28T02:33:28.803Z,99.90
2018-06-28T02:35:57.161Z,99.90
2018-06-28T02:38:25.254Z,99.90
2018-06-28T02:40:53.422Z,99.90
2018-06-28T02:43:21.970Z,99.90
2018-06-28T02:45:50.062Z,99.90
2018-06-28T02:48:18.962Z,99.90
2018-06-28T02:50:47.329Z,99.90
2018-06-28T02:53:15.799Z,99.90
2018-06-28T02:55:44.010Z,99.90
2018-06-28T02:58:13.459Z,99.90
2018-06-28T03:05:38.511Z,99.90
2018-06-28T03:08:08.242Z,99.90
2018-06-28T03:10:36.457Z,99.90
2018-06-28T03:15:33.538Z,99.90
2018-06-28T03:20:29.662Z,99.90
2018-06-28T03:22:58.036Z,99.90
2018-06-28T03:25:26.702Z,99.90
2018-06-28T03:27:55.230Z,99.90
2018-06-28T03:32:53.370Z,99.90
2018-06-28T03:35:22.105Z,99.90
2018-06-28T03:37:50.942Z,99.90
2018-06-28T03:42:47.914Z,99.90
2018-06-28T03:45:16.314Z,99.90
2018-06-28T03:47:44.485Z,99.90
2018-06-28T03:50:14.306Z,99.90
2018-06-28T03:52:42.502Z,99.90
2018-06-28T04:00:07.405Z,99.90
2018-06-28T04:02:36.508Z,99.90
2018-06-28T04:05:06.118Z,99.90
2018-06-28T04:07:34.293Z,99.90
2018-06-28T04:14:59.177Z,99.90
2018-06-28T04:17:28.010Z,99.90
2018-06-28T04:19:56.714Z,99.90
2018-06-28T04:22:31.443Z,99.90
2018-06-28T04:27:29.324Z,99.90
2018-06-28T04:32:26.009Z,99.90
2018-06-28T04:34:54.210Z,99.90
2018-06-28T04:37:22.280Z,99.90
2018-06-28T04:39:50.469Z,99.90
2018-06-28T04:42:18.531Z,99.90
2018-06-28T04:44:46.738Z,99.90
2018-06-28T04:47:15.900Z,99.90
2018-06-28T04:49:44.260Z,99.90
2018-06-28T04:52:13.276Z,99.90
2018-06-28T04:54:41.991Z,99.90
2018-06-28T04:57:11.058Z,99.90
2018-06-28T04:59:39.154Z,99.90
2018-06-28T05:02:07.554Z,99.90
2018-06-28T05:04:40.036Z,99.90
2018-06-28T05:07:09.259Z,99.90
2018-06-28T05:09:37.509Z,99.90
2018-06-28T05:12:07.427Z,99.90
2018-06-28T05:17:03.915Z,99.90
2018-06-28T05:22:00.126Z,99.90
2018-06-28T05:26:57.121Z,99.90
2018-06-28T05:29:25.389Z,99.90
2018-06-28T05:34:21.468Z,99.90
2018-06-28T05:36:49.810Z,99.90
2018-06-28T05:39:18.090Z,99.90
2018-06-28T05:41:48.383Z,99.90
2018-06-28T05:44:17.003Z,99.90
2018-06-28T05:46:46.869Z,99.90
2018-06-28T05:49:15.823Z,99.90
2018-06-28T05:51:45.777Z,99.90
2018-06-28T05:54:14.637Z,99.90
2018-06-28T05:56:43.409Z,99.90
2018-06-28T05:59:11.701Z,99.90
2018-06-28T06:01:39.902Z,99.90
2018-06-28T06:04:08.750Z,99.90
2018-06-28T06:06:36.965Z,99.90
2018-06-28T06:09:07.561Z,99.90
2018-06-28T06:11:36.314Z,99.90
2018-06-28T06:14:04.543Z,99.90
2018-06-28T06:16:32.626Z,99.90
2018-06-28T06:19:02.602Z,99.90
2018-06-28T06:21:30.726Z,99.90
2018-06-28T06:23:59.613Z,99.90
2018-06-28T06:26:28.392Z,99.90
2018-06-28T06:28:58.525Z,99.90
2018-06-28T06:31:27.805Z,99.90
2018-06-28T06:33:56.917Z,99.90
2018-06-28T06:36:25.355Z,99.90
2018-06-28T06:38:53.452Z,99.90
2018-06-28T06:41:22.436Z,99.90
2018-06-28T06:46:19.114Z,99.90
2018-06-28T06:48:47.258Z,99.90
2018-06-28T06:53:43.550Z,99.90
2018-06-28T06:56:11.697Z,99.90
2018-06-28T06:58:40.542Z,99.90
2018-06-28T07:01:09.033Z,99.90
2018-06-28T07:06:05.509Z,99.90
2018-06-28T07:08:34.238Z,99.90
2018-06-28T07:11:03.137Z,99.90
2018-06-28T07:13:31.113Z,99.90
2018-06-28T07:16:00.164Z,99.90
2018-06-28T07:18:30.582Z,99.90
2018-06-28T07:20:58.674Z,99.60
2018-06-28T07:23:27.270Z,99.50
2018-06-28T07:25:56.085Z,96.80
2018-06-28T07:28:24.517Z,97.90
2018-06-28T07:30:53.311Z,97.40
2018-06-28T07:33:22.217Z,95.90
2018-06-28T07:35:50.306Z,97.60
2018-06-28T07:38:19.310Z,99.50
2018-06-28T07:40:47.432Z,99.00
2018-06-28T07:43:16.110Z,96.20
2018-06-28T07:50:42.347Z,93.80
2018-06-28T07:53:10.705Z,93.80
2018-06-28T07:55:40.054Z,92.60
2018-06-28T07:58:08.834Z,92.80
2018-06-28T08:03:06.246Z,91.10
2018-06-28T08:05:36.390Z,88.70
2018-06-28T08:08:06.462Z,85.30
2018-06-28T08:13:02.939Z,80.70
2018-06-28T08:15:31.103Z,83.30
2018-06-28T08:18:00.985Z,79.40
2018-06-28T08:22:58.358Z,78.80
2018-06-28T08:27:55.533Z,80.40
2018-06-28T08:32:52.440Z,75.40
2018-06-28T08:35:20.607Z,79.50
2018-06-28T08:37:48.682Z,79.70
2018-06-28T08:40:16.782Z,76.90
2018-06-28T08:42:44.882Z,75.60
2018-06-28T08:47:41.766Z,74.60
2018-06-28T08:50:11.298Z,70.20
2018-06-28T08:52:39.947Z,70.20
2018-06-28T08:55:08.052Z,66.10
2018-06-28T08:57:36.114Z,66.40
2018-06-28T09:00:06.450Z,65.50
2018-06-28T09:02:35.522Z,69.80
2018-06-28T09:05:04.514Z,66.40
2018-06-28T09:07:33.200Z,63.60
2018-06-28T09:12:30.326Z,61.60
2018-06-28T09:14:58.859Z,62.50
2018-06-28T09:17:27.470Z,56.60
2018-06-28T09:19:55.852Z,58.50
2018-06-28T09:22:25.017Z,59.80
2018-06-28T09:24:53.442Z,53.70
2018-06-28T09:27:22.077Z,53.10
2018-06-28T09:32:18.192Z,57.80
2018-06-28T09:34:46.951Z,56.10
2018-06-28T09:37:15.301Z,55.00
2018-06-28T09:39:44.230Z,54.30
2018-06-28T09:42:12.433Z,57.80
2018-06-28T09:44:40.562Z,56.60
2018-06-28T09:47:09.080Z,55.10
2018-06-28T09:49:38.638Z,54.10
2018-06-28T09:52:07.245Z,51.90
2018-06-28T09:54:36.204Z,49.30
2018-06-28T09:57:04.444Z,46.80
2018-06-28T09:59:32.525Z,47.10
2018-06-28T10:02:00.658Z,50.50
2018-06-28T10:04:29.142Z,51.20
2018-06-28T10:06:58.083Z,48.00
2018-06-28T10:09:26.375Z,49.30
2018-06-28T10:11:54.477Z,46.40
2018-06-28T10:14:23.034Z,48.00
2018-06-28T10:21:49.042Z,48.80
2018-06-28T10:24:17.970Z,45.20
2018-06-28T10:29:14.185Z,45.90
2018-06-28T10:31:43.071Z,49.40
2018-06-28T10:34:11.247Z,43.40
2018-06-28T10:36:40.323Z,47.50
2018-06-28T10:39:10.097Z,45.20
2018-06-28T10:44:08.249Z,49.80
2018-06-28T10:46:36.399Z,43.70
2018-06-28T10:49:04.462Z,49.20
2018-06-28T10:51:33.370Z,49.00
2018-06-28T10:54:02.185Z,51.00
2018-06-28T10:56:30.451Z,48.00
2018-06-28T11:01:27.657Z,47.70
2018-06-28T11:06:25.306Z,46.60
2018-06-28T11:08:53.705Z,44.30
2018-06-28T11:11:23.190Z,45.90
2018-06-28T11:13:52.056Z,41.90
2018-06-28T11:16:20.491Z,44.30
2018-06-28T11:18:48.790Z,44.20
2018-06-28T11:21:16.876Z,46.50
2018-06-28T11:23:45.164Z,45.90
2018-06-28T11:26:13.485Z,49.70
2018-06-28T11:31:09.970Z,46.80
2018-06-28T11:33:38.558Z,46.80
2018-06-28T11:36:08.133Z,49.50
2018-06-28T11:38:36.679Z,48.20
2018-06-28T11:41:05.165Z,48.70
2018-06-28T11:43:34.050Z,46.10
2018-06-28T11:46:02.222Z,43.30
2018-06-28T11:48:31.252Z,43.10
2018-06-28T11:50:59.674Z,41.50
2018-06-28T11:53:28.725Z,41.30
2018-06-28T11:55:57.157Z,42.60
2018-06-28T11:58:26.006Z,43.50
2018-06-28T12:03:24.014Z,42.80
2018-06-28T12:08:21.278Z,45.80
2018-06-28T12:13:17.668Z,45.30
2018-06-28T12:15:45.874Z,45.50
2018-06-28T12:18:14.202Z,42.50
2018-06-28T12:20:43.497Z,42.30
2018-06-28T12:25:40.129Z,41.30
2018-06-28T12:30:37.820Z,42.90
2018-06-28T12:35:34.177Z,42.20
2018-06-28T12:40:31.033Z,42.30
2018-06-28T12:45:28.582Z,40.10
2018-06-28T12:48:13.565Z,41.90
2018-06-28T12:50:41.699Z,42.50
2018-06-28T12:53:11.011Z,39.90
2018-06-28T12:56:50.441Z,41.60
2018-06-28T12:59:20.970Z,43.60
2018-06-28T13:01:51.095Z,43.00
2018-06-28T13:04:19.842Z,43.00
2018-06-28T13:09:17.492Z,43.10
2018-06-28T13:11:46.369Z,44.40
2018-06-28T13:14:14.883Z,44.10
2018-06-28T13:16:43.013Z,44.00
2018-06-28T13:19:11.317Z,44.10
2018-06-28T13:21:39.483Z,41.80
2018-06-28T13:24:07.891Z,44.00
2018-06-28T13:26:36.237Z,42.30
2018-06-28T13:29:04.518Z,44.30
2018-06-28T13:31:33.338Z,43.50
2018-06-28T13:41:27.123Z,45.20
2018-06-28T13:43:54.898Z,46.10
2018-06-28T13:46:23.104Z,46.50
2018-06-28T13:48:53.003Z,47.20
2018-06-28T13:51:21.973Z,46.60
2018-06-28T13:53:50.989Z,46.50
2018-06-28T13:56:19.514Z,47.70
2018-06-28T13:58:47.642Z,49.80
2018-06-28T14:01:15.730Z,49.00
2018-06-28T14:03:43.781Z,51.50
2018-06-28T14:06:13.770Z,49.40
2018-06-28T14:08:42.667Z,50.50
2018-06-28T14:11:11.525Z,52.10
2018-06-28T14:13:39.624Z,51.20
2018-06-28T14:16:09.093Z,50.70
2018-06-28T14:21:06.627Z,50.60
2018-06-28T14:23:34.797Z,49.50
2018-06-28T14:26:04.283Z,50.80
2018-06-28T14:28:33.340Z,48.90
2018-06-28T14:33:30.986Z,51.80
2018-06-28T14:35:59.377Z,48.70
2018-06-28T14:38:27.933Z,51.10
2018-06-28T14:40:56.145Z,52.70
2018-06-28T14:43:24.218Z,51.50
2018-06-28T14:45:52.677Z,51.30
2018-06-28T14:48:21.586Z,53.60
2018-06-28T14:50:50.274Z,51.70
2018-06-28T14:55:47.426Z,50.30
2018-06-28T14:58:15.582Z,50.90
2018-06-28T15:00:44.243Z,51.10
2018-06-28T15:03:12.811Z,55.80
2018-06-28T15:05:41.705Z,53.90
2018-06-28T15:10:37.942Z,54.60
2018-06-28T15:18:03.282Z,53.00
2018-06-28T15:20:32.249Z,53.70
2018-06-28T15:23:01.416Z,55.50
2018-06-28T15:25:29.609Z,51.40
2018-06-28T15:28:03.930Z,52.70
2018-06-28T15:30:33.046Z,51.80
2018-06-28T15:35:31.314Z,52.20
2018-06-28T15:37:59.515Z,52.50
2018-06-28T15:40:27.600Z,50.90
2018-06-28T15:42:56.213Z,51.20
2018-06-28T15:45:24.709Z,50.70
2018-06-28T15:47:53.546Z,50.70
2018-06-28T15:50:21.702Z,49.90
2018-06-28T15:52:50.294Z,52.30
2018-06-28T15:55:18.713Z,51.90
2018-06-28T16:00:15.602Z,52.10
2018-06-28T16:02:44.378Z,52.10
2018-06-28T16:05:13.024Z,50.70
2018-06-28T16:07:42.517Z,49.30
2018-06-28T16:10:10.674Z,48.80
2018-06-28T16:12:39.683Z,50.90
2018-06-28T16:15:08.433Z,48.30
2018-06-28T16:17:36.510Z,52.10
2018-06-28T16:20:04.937Z,52.80
2018-06-28T16:22:33.057Z,51.70
2018-06-28T16:25:01.287Z,50.90
2018-06-28T16:27:30.451Z,50.30
2018-06-28T16:29:59.460Z,50.00
2018-06-28T16:32:27.634Z,48.00
2018-06-28T16:34:56.007Z,48.40
2018-06-28T16:37:24.331Z,49.50
2018-06-28T16:39:52.566Z,49.40
2018-06-28T16:42:21.781Z,50.50
2018-06-28T16:44:50.480Z,48.60
2018-06-28T16:47:18.555Z,50.10
2018-06-28T16:54:44.578Z,51.00
2018-06-28T16:57:13.582Z,50.20
2018-06-28T16:59:42.271Z,49.40
2018-06-28T17:02:10.220Z,51.00
2018-06-28T17:04:39.524Z,51.80
2018-06-28T17:07:07.826Z,50.80
2018-06-28T17:09:36.945Z,51.60
2018-06-28T17:12:06.299Z,50.70
2018-06-28T17:14:34.366Z,50.90
2018-06-28T17:17:02.589Z,51.50
2018-06-28T17:19:32.063Z,52.70
2018-06-28T17:22:00.486Z,54.20
2018-06-28T17:24:28.662Z,53.10
2018-06-28T17:29:25.797Z,51.40
2018-06-28T17:31:54.838Z,53.00
2018-06-28T17:36:51.437Z,52.20
2018-06-28T17:39:19.490Z,52.60
2018-06-28T17:41:48.391Z,52.20
2018-06-28T17:44:16.613Z,52.90
2018-06-28T17:46:46.149Z,52.90
2018-06-28T17:51:43.022Z,53.70
2018-06-28T17:54:11.342Z,53.30
2018-06-28T17:56:40.583Z,53.50
2018-06-28T18:01:37.309Z,54.80
2018-06-28T18:04:07.223Z,55.20
2018-06-28T18:06:35.385Z,55.00
2018-06-28T18:09:05.684Z,55.10
2018-06-28T18:14:02.474Z,55.70
2018-06-28T18:16:31.891Z,55.80
2018-06-28T18:19:00.463Z,56.50
2018-06-28T18:21:28.585Z,57.10
2018-06-28T18:23:57.918Z,57.40
2018-06-28T18:26:25.989Z,57.20
2018-06-28T18:28:54.386Z,57.30
2018-06-28T18:31:22.534Z,58.50
2018-06-28T18:33:51.349Z,58.20
2018-06-28T18:36:19.450Z,58.10
2018-06-28T18:38:47.577Z,59.00
2018-06-28T18:41:15.790Z,58.20
2018-06-28T18:43:44.335Z,59.70
2018-06-28T18:46:12.934Z,58.90
2018-06-28T18:48:41.094Z,59.90
2018-06-28T18:51:09.530Z,60.20
2018-06-28T18:58:34.521Z,62.60
2018-06-28T19:01:02.689Z,62.00
2018-06-28T19:03:31.562Z,61.90
2018-06-28T19:06:01.174Z,62.40
2018-06-28T19:08:29.844Z,62.80
2018-06-28T19:10:59.190Z,63.90
2018-06-28T19:13:28.115Z,63.50
2018-06-28T19:16:02.242Z,65.30
2018-06-28T19:21:05.790Z,68.50
2018-06-28T19:23:39.266Z,70.00
2018-06-28T19:28:35.681Z,70.50
2018-06-28T19:31:09.865Z,68.70
2018-06-28T19:33:38.100Z,70.00
2018-06-28T19:39:39.284Z,72.90
2018-06-28T19:42:13.022Z,74.00
2018-06-28T19:44:41.320Z,74.90
2018-06-28T19:47:09.763Z,78.20
2018-06-28T19:49:43.572Z,79.90
2018-06-28T19:52:16.981Z,80.40
2018-06-28T19:54:46.001Z,81.50
2018-06-28T19:57:14.989Z,83.60
2018-06-28T19:59:47.432Z,85.70
2018-06-28T20:02:22.117Z,84.80
2018-06-28T20:04:50.302Z,85.50
2018-06-28T20:07:18.927Z,88.50
2018-06-28T20:09:47.173Z,91.10
2018-06-28T20:14:54.580Z,94.20
2018-06-28T20:24:58.445Z,95.40
2018-06-28T20:27:32.030Z,95.10
2018-06-28T20:32:39.641Z,96.90
2018-06-28T20:35:08.158Z,95.50
2018-06-28T20:37:37.599Z,96.10
2018-06-28T20:40:06.054Z,95.50
2018-06-28T20:42:34.938Z,95.80
2018-06-28T20:45:03.419Z,95.70
2018-06-28T20:47:32.094Z,95.40
2018-06-28T20:50:00.313Z,95.50
2018-06-28T20:52:28.430Z,96.90
2018-06-28T20:57:25.144Z,96.80
2018-06-28T20:59:53.641Z,95.80
2018-06-28T21:02:22.727Z,96.60
2018-06-28T21:04:51.886Z,97.70
2018-06-28T21:07:21.266Z,99.70
2018-06-28T21:12:20.045Z,99.90
2018-06-28T21:14:48.908Z,99.90
2018-06-28T21:17:17.735Z,99.90
2018-06-28T21:19:46.115Z,99.90
2018-06-28T21:22:14.249Z,99.90
2018-06-28T21:24:42.457Z,99.90
2018-06-28T21:32:07.429Z,99.90
2018-06-28T21:34:37.672Z,99.90
2018-06-28T21:42:02.123Z,99.90
2018-06-28T21:44:31.118Z,99.90
2018-06-28T21:46:59.337Z,99.90
2018-06-28T21:49:28.018Z,99.90
2018-06-28T21:54:25.641Z,99.90
2018-06-28T21:56:54.326Z,99.90
2018-06-28T21:59:23.196Z,99.90
2018-06-28T22:01:52.934Z,99.90
2018-06-28T22:04:21.497Z,99.90
2018-06-28T22:06:50.429Z,99.90
2018-06-28T22:09:19.865Z,99.90
2018-06-28T22:14:17.262Z,99.90
2018-06-28T22:16:45.986Z,99.90
2018-06-28T22:19:14.138Z,99.90
2018-06-28T22:21:43.108Z,99.90
2018-06-28T22:24:12.047Z,99.90
2018-06-28T22:26:41.449Z,99.90
2018-06-28T22:29:10.769Z,99.90
2018-06-28T22:31:39.573Z,99.90
2018-06-28T23:58:34.841Z,99.90
